Time;durP1;ratioP1;P1;durP2;ratioP2;P2;SDS_P1;SDS_P2;PMS_P1;PMS_P2;Temp;Humidity;BMP_temperature;BMP_pressure;BME280_temperature;BME280_humidity;BME280_pressure;Samples;Min_cycle;Max_cycle;Signal;HPM_P1;HPM_P2
2021/04/18 00:01:52;;;;;;;10.77;5.45;;;12.40;42.20;;;;;;6213124;28;20428;-78
2021/04/18 00:04:53;;;;;;;11.40;5.88;;;12.40;42.30;;;;;;6226594;28;20038;-79
2021/04/18 00:08:02;;;;;;;11.40;5.05;;;12.30;42.30;;;;;;6238671;28;20129;-78
2021/04/18 00:11:02;;;;;;;;;;;12.30;42.40;;;;;;6228686;28;20113;-78
2021/04/18 00:14:05;;;;;;;11.18;4.85;;;12.30;42.40;;;;;;6219874;28;19921;-79
2021/04/18 00:17:06;;;;;;;10.20;5.03;;;12.20;42.40;;;;;;6207592;28;20468;-78
2021/04/18 00:20:12;;;;;;;10.05;5.35;;;12.20;42.40;;;;;;6211125;28;20069;-79
2021/04/18 00:23:13;;;;;;;13.65;5.93;;;12.10;42.60;;;;;;6215927;28;20457;-78
2021/04/18 00:26:14;;;;;;;15.32;6.88;;;12.10;43.10;;;;;;6214953;28;20034;-79
2021/04/18 00:29:15;;;;;;;15.77;7.18;;;12.00;43.40;;;;;;6217478;28;20468;-80
2021/04/18 00:32:16;;;;;;;16.42;6.57;;;11.90;43.50;;;;;;6200305;28;20033;-78
2021/04/18 00:35:21;;;;;;;18.25;6.50;;;11.90;43.60;;;;;;6200539;28;20041;-78
2021/04/18 00:38:22;;;;;;;12.07;6.90;;;11.90;43.60;;;;;;6204150;28;20092;-78
2021/04/18 00:41:23;;;;;;;11.25;6.68;;;11.80;43.70;;;;;;6207265;28;20412;-78
2021/04/18 00:44:24;;;;;;;13.75;6.38;;;11.80;44.20;;;;;;6194286;28;20125;-78
2021/04/18 00:47:30;;;;;;;11.00;6.20;;;11.80;43.90;;;;;;6234154;28;20030;-79
2021/04/18 00:50:33;;;;;;;11.70;5.97;;;11.80;43.90;;;;;;6201878;28;20030;-78
2021/04/18 00:53:34;;;;;;;14.70;6.25;;;11.80;44.00;;;;;;6214909;28;20333;-79
2021/04/18 00:56:35;;;;;;;15.07;7.15;;;11.80;44.40;;;;;;6196383;28;20045;-79
2021/04/18 00:59:36;;;;;;;17.23;6.30;;;11.70;44.80;;;;;;6230370;28;20145;-78
2021/04/18 01:02:38;;;;;;;11.73;6.22;;;11.70;45.10;;;;;;6218794;28;20127;-78
2021/04/18 01:05:39;;;;;;;11.60;6.22;;;11.60;45.10;;;;;;6211524;28;20046;-77
2021/04/18 01:08:41;;;;;;;12.10;6.22;;;11.50;45.10;;;;;;6214827;28;20037;-78
2021/04/18 01:11:42;;;;;;;12.02;5.80;;;11.60;45.30;;;;;;6205191;28;20040;-78
2021/04/18 01:14:44;;;;;;;17.38;6.53;;;11.50;45.60;;;;;;6200476;28;20060;-77
2021/04/18 01:17:45;;;;;;;11.50;5.47;;;11.50;46.10;;;;;;6198276;28;20337;-78
2021/04/18 01:21:00;;;;;;;10.57;4.60;;;11.40;46.40;;;;;;6219011;28;20092;-79
2021/04/18 01:24:25;;;;;;;15.43;5.75;;;11.40;46.50;;;;;;6127911;28;20463;-79
2021/04/18 01:27:46;;;;;;;11.48;5.25;;;11.30;46.70;;;;;;6138484;28;20039;-79
2021/04/18 01:30:49;;;;;;;10.73;5.55;;;11.30;47.00;;;;;;6132638;28;20067;-79
2021/04/18 01:38:12;;;;;;;12.75;4.95;;;11.10;47.30;;;;;;6138457;28;20031;-79
2021/04/18 01:41:13;;;;;;;10.80;5.55;;;11.00;47.70;;;;;;6135828;28;20047;-79
2021/04/18 01:52:58;;;;;;;8.40;4.28;;;10.80;47.80;;;;;;6140335;28;20110;-79
2021/04/18 01:56:00;;;;;;;10.43;5.15;;;10.80;48.20;;;;;;6138261;28;20039;-79
2021/04/18 01:59:03;;;;;;;9.95;5.38;;;10.70;48.40;;;;;;6136036;28;20036;-79
2021/04/18 02:02:24;;;;;;;12.45;5.53;;;10.70;48.40;;;;;;6215253;28;20072;-79
2021/04/18 02:05:35;;;;;;;13.55;5.20;;;10.70;48.70;;;;;;6217823;28;20141;-79
2021/04/18 02:08:37;;;;;;;8.23;4.72;;;10.70;49.10;;;;;;6198794;28;20108;-79
2021/04/18 02:11:39;;;;;;;9.13;4.88;;;10.60;49.30;;;;;;6203156;28;20056;-78
2021/04/18 02:14:46;;;;;;;10.82;5.68;;;10.60;49.50;;;;;;6219993;28;20484;-78
2021/04/18 02:17:55;;;;;;;11.02;5.20;;;10.50;49.60;;;;;;6219141;28;20038;-78
2021/04/18 02:20:57;;;;;;;11.55;5.38;;;10.50;49.70;;;;;;6195900;28;20045;-78
2021/04/18 02:23:59;;;;;;;13.05;5.00;;;10.50;49.60;;;;;;6222682;28;20049;-79
2021/04/18 02:27:01;;;;;;;8.52;4.75;;;10.40;49.40;;;;;;6200586;28;20457;-78
2021/04/18 02:30:14;;;;;;;8.88;4.50;;;10.40;49.30;;;;;;6201616;28;20058;-79
2021/04/18 02:33:20;;;;;;;10.07;5.13;;;10.40;49.40;;;;;;6203305;28;20112;-78
2021/04/18 02:36:21;;;;;;;10.38;5.15;;;10.40;49.40;;;;;;6215509;28;20044;-78
2021/04/18 02:39:22;;;;;;;10.25;5.28;;;10.40;49.50;;;;;;6213584;28;20038;-78
2021/04/18 02:42:24;;;;;;;11.23;4.93;;;10.30;49.40;;;;;;6215223;28;20030;-77
2021/04/18 02:45:26;;;;;;;9.93;4.70;;;10.30;49.40;;;;;;6224698;28;20026;-78
2021/04/18 02:48:27;;;;;;;9.20;4.97;;;10.20;49.50;;;;;;6205624;28;20037;-78
2021/04/18 02:51:30;;;;;;;8.50;4.55;;;10.20;49.60;;;;;;6215426;28;20331;-78
2021/04/18 02:54:31;;;;;;;7.93;4.80;;;10.20;49.90;;;;;;6223660;28;20045;-78
2021/04/18 02:57:35;;;;;;;7.97;5.10;;;10.20;50.00;;;;;;6217901;28;20368;-78
2021/04/18 03:00:37;;;;;;;9.52;5.18;;;10.20;50.00;;;;;;6207474;28;20044;-78
2021/04/18 03:03:38;;;;;;;10.77;4.78;;;10.10;50.20;;;;;;6219945;28;20472;-78
2021/04/18 03:06:39;;;;;;;8.88;5.43;;;10.10;50.40;;;;;;6203507;28;20034;-79
2021/04/18 03:09:40;;;;;;;10.77;5.13;;;10.10;50.40;;;;;;6212871;28;20404;-78
2021/04/18 03:12:41;;;;;;;10.55;4.93;;;10.10;50.50;;;;;;6209349;28;20187;-79
2021/04/18 03:15:44;;;;;;;9.82;5.13;;;10.10;50.80;;;;;;6207620;28;20052;-78
2021/04/18 03:18:46;;;;;;;10.20;5.20;;;10.10;51.00;;;;;;6210269;28;20062;-79
2021/04/18 03:21:47;;;;;;;10.63;5.60;;;10.10;51.10;;;;;;6232171;28;20508;-78
2021/04/18 03:24:49;;;;;;;11.73;5.22;;;10.10;51.10;;;;;;6201454;28;20033;-78
2021/04/18 03:27:52;;;;;;;10.90;5.05;;;10.00;51.20;;;;;;6203777;28;20034;-78
2021/04/18 03:31:05;;;;;;;14.32;5.45;;;10.00;51.30;;;;;;6202486;28;20038;-78
2021/04/18 03:34:13;;;;;;;12.73;5.43;;;9.90;51.30;;;;;;6199650;28;20077;-78
2021/04/18 03:37:15;;;;;;;11.20;4.80;;;9.90;51.30;;;;;;6194120;28;20042;-78
2021/04/18 03:40:17;;;;;;;10.70;5.28;;;9.90;51.40;;;;;;6200713;28;20093;-78
2021/04/18 03:43:18;;;;;;;11.57;6.07;;;9.80;51.50;;;;;;6220507;28;20053;-78
2021/04/18 03:46:19;;;;;;;18.05;5.43;;;9.80;51.60;;;;;;6206478;28;20038;-78
2021/04/18 03:49:24;;;;;;;12.38;5.13;;;9.80;51.70;;;;;;6222507;28;20040;-79
2021/04/18 03:52:34;;;;;;;12.32;5.80;;;9.80;51.80;;;;;;6227772;28;20057;-79
2021/04/18 03:55:35;;;;;;;12.05;5.43;;;9.80;51.90;;;;;;6217810;28;20030;-79
2021/04/18 03:58:36;;;;;;;11.32;5.78;;;9.80;52.00;;;;;;6224245;28;20041;-78
2021/04/18 04:01:41;;;;;;;12.30;5.30;;;9.70;52.00;;;;;;6209479;28;20038;-78
2021/04/18 04:04:46;;;;;;;8.52;4.97;;;9.70;51.90;;;;;;6216153;28;20049;-78
2021/04/18 04:07:51;;;;;;;8.38;4.65;;;9.70;51.90;;;;;;6231050;28;20058;-78
2021/04/18 04:10:53;;;;;;;9.82;5.20;;;9.60;52.00;;;;;;6225686;28;20041;-78
2021/04/18 04:13:56;;;;;;;10.02;5.40;;;9.60;52.00;;;;;;6211425;28;20459;-78
2021/04/18 04:17:02;;;;;;;9.25;4.95;;;9.60;52.10;;;;;;6236693;28;20541;-79
2021/04/18 04:20:18;;;;;;;10.35;5.03;;;9.60;52.10;;;;;;6220582;28;20079;-78
2021/04/18 04:23:38;;;;;;;9.75;5.00;;;9.50;52.00;;;;;;6238593;28;20033;-78
2021/04/18 04:26:39;;;;;;;12.82;5.40;;;9.50;52.00;;;;;;6228939;28;20124;-78
2021/04/18 04:29:40;;;;;;;11.30;5.07;;;9.50;52.10;;;;;;6221944;28;20078;-78
2021/04/18 04:32:41;;;;;;;11.98;6.18;;;9.40;52.10;;;;;;6232185;28;20030;-79
2021/04/18 04:35:43;;;;;;;11.75;6.28;;;9.40;52.20;;;;;;6217013;28;20041;-78
2021/04/18 04:38:44;;;;;;;9.82;5.60;;;9.40;52.30;;;;;;6201492;28;20065;-78
2021/04/18 04:41:45;;;;;;;11.52;5.80;;;9.30;52.40;;;;;;6202903;28;20041;-78
2021/04/18 04:44:46;;;;;;;12.43;5.82;;;9.30;52.60;;;;;;6207094;28;20108;-78
2021/04/18 04:47:47;;;;;;;12.57;6.60;;;9.20;52.70;;;;;;6210579;28;20456;-78
2021/04/18 04:50:48;;;;;;;10.40;5.72;;;9.20;52.80;;;;;;6217319;28;20042;-78
2021/04/18 04:53:49;;;;;;;10.20;5.32;;;9.20;52.90;;;;;;6213282;28;20044;-78
2021/04/18 04:56:50;;;;;;;9.65;5.15;;;9.20;52.90;;;;;;6215839;28;20041;-78
2021/04/18 04:59:50;;;;;;;10.35;5.53;;;9.20;53.00;;;;;;6221730;28;20037;-79
2021/04/18 05:02:51;;;;;;;10.02;5.40;;;9.20;53.10;;;;;;6220931;28;20042;-78
2021/04/18 05:05:53;;;;;;;9.43;5.57;;;9.10;53.10;;;;;;6220391;28;20128;-78
2021/04/18 05:08:54;;;;;;;15.73;6.10;;;9.10;53.20;;;;;;6215017;28;20107;-78
2021/04/18 05:11:55;;;;;;;17.15;5.20;;;9.00;53.20;;;;;;6229479;28;20046;-78
2021/04/18 05:14:57;;;;;;;10.15;5.57;;;9.00;53.40;;;;;;6200651;28;20522;-78
2021/04/18 05:17:59;;;;;;;11.95;5.90;;;9.00;53.30;;;;;;6217997;28;20029;-78
2021/04/18 05:21:00;;;;;;;9.65;5.03;;;9.10;53.30;;;;;;6213820;28;20034;-78
2021/04/18 05:24:01;;;;;;;10.45;6.05;;;9.10;53.30;;;;;;6228209;28;20057;-78
2021/04/18 05:27:02;;;;;;;12.35;6.45;;;9.10;53.30;;;;;;6214949;28;20030;-80
2021/04/18 05:30:05;;;;;;;12.05;5.85;;;9.20;53.30;;;;;;6207390;28;20491;-78
2021/04/18 05:33:06;;;;;;;13.00;6.60;;;9.20;53.30;;;;;;6231081;28;20519;-78
2021/04/18 05:36:07;;;;;;;10.05;5.32;;;9.30;53.30;;;;;;6218835;28;20076;-78
2021/04/18 05:39:09;;;;;;;9.55;5.40;;;9.30;53.40;;;;;;6209374;28;20038;-78
2021/04/18 05:42:10;;;;;;;12.38;5.53;;;9.30;53.20;;;;;;6199890;28;20026;-78
2021/04/18 05:45:11;;;;;;;11.80;5.63;;;9.30;53.20;;;;;;6214375;28;20034;-79
2021/04/18 05:48:12;;;;;;;11.27;5.00;;;9.30;53.10;;;;;;6218837;28;20034;-78
2021/04/18 05:51:15;;;;;;;16.40;5.15;;;9.30;53.10;;;;;;6205569;28;20113;-78
2021/04/18 05:54:16;;;;;;;11.93;5.93;;;9.40;53.00;;;;;;6236246;28;21015;-78
2021/04/18 05:57:18;;;;;;;13.10;5.85;;;9.50;53.00;;;;;;6218225;28;20034;-78
2021/04/18 06:00:20;;;;;;;10.85;5.93;;;9.50;52.90;;;;;;6200504;28;20358;-78
2021/04/18 06:03:21;;;;;;;10.82;5.97;;;9.50;52.70;;;;;;6229870;28;20030;-78
2021/04/18 06:06:25;;;;;;;11.40;5.80;;;9.60;52.70;;;;;;6222154;28;20093;-78
2021/04/18 06:09:27;;;;;;;11.60;5.78;;;9.70;52.60;;;;;;6209375;28;20357;-78
2021/04/18 06:12:28;;;;;;;10.60;5.53;;;9.70;52.40;;;;;;6197034;28;20049;-79
2021/04/18 06:15:29;;;;;;;10.35;6.07;;;9.70;52.30;;;;;;6229400;28;20360;-78
2021/04/18 06:18:30;;;;;;;12.88;6.20;;;9.70;52.30;;;;;;6221958;28;20475;-79
2021/04/18 06:21:31;;;;;;;14.68;7.00;;;9.80;52.20;;;;;;6209655;28;20045;-78
2021/04/18 06:24:32;;;;;;;10.20;5.45;;;9.80;52.30;;;;;;6192151;28;20042;-78
2021/04/18 06:27:33;;;;;;;9.82;5.63;;;9.80;52.20;;;;;;6221903;28;20050;-78
2021/04/18 06:30:34;;;;;;;13.35;6.70;;;9.80;52.90;;;;;;6214765;28;20060;-78
2021/04/18 06:33:35;;;;;;;11.65;6.22;;;9.70;52.30;;;;;;6218956;28;20387;-78
2021/04/18 06:36:36;;;;;;;11.48;5.65;;;9.70;52.40;;;;;;6232391;28;20049;-78
2021/04/18 06:39:36;;;;;;;18.48;6.45;;;9.70;52.50;;;;;;6217532;28;20041;-78
2021/04/18 06:42:38;;;;;;;12.85;7.43;;;9.70;52.60;;;;;;6202813;28;20429;-79
2021/04/18 06:45:40;;;;;;;15.70;6.35;;;9.70;52.60;;;;;;6233939;28;20029;-78
2021/04/18 06:48:42;;;;;;;13.23;6.10;;;9.70;52.50;;;;;;6197351;28;20037;-78
2021/04/18 06:51:43;;;;;;;13.43;7.00;;;9.80;52.40;;;;;;6227803;28;20072;-78
2021/04/18 06:54:44;;;;;;;16.35;5.65;;;9.90;52.20;;;;;;6220169;28;20365;-78
2021/04/18 06:57:45;;;;;;;14.32;6.43;;;10.00;52.00;;;;;;6201738;28;20042;-78
2021/04/18 07:00:46;;;;;;;18.00;5.95;;;10.20;51.90;;;;;;6201657;28;20048;-79
2021/04/18 07:04:17;;;;;;;13.32;6.57;;;10.30;51.60;;;;;;6218249;28;20037;-79
2021/04/18 07:07:30;;;;;;;14.07;6.40;;;10.40;51.30;;;;;;6211455;28;20065;-79
2021/04/18 07:10:31;;;;;;;13.57;6.57;;;10.50;51.10;;;;;;6200903;28;20050;-79
2021/04/18 07:13:32;;;;;;;11.63;5.25;;;10.60;50.90;;;;;;6213467;28;20030;-78
2021/04/18 07:16:35;;;;;;;11.27;6.03;;;10.60;50.70;;;;;;6222992;28;20046;-78
2021/04/18 07:19:38;;;;;;;11.65;6.22;;;10.70;50.70;;;;;;6216153;28;20077;-78
2021/04/18 07:22:39;;;;;;;11.23;6.28;;;10.80;50.50;;;;;;6205003;28;20100;-78
2021/04/18 07:25:43;;;;;;;12.57;6.20;;;10.90;50.20;;;;;;6212148;28;20038;-79
2021/04/18 07:28:45;;;;;;;11.35;5.90;;;11.10;50.20;;;;;;6208206;28;20045;-78
2021/04/18 07:31:47;;;;;;;12.43;6.30;;;11.10;50.00;;;;;;6213916;28;20046;-78
2021/04/18 07:34:49;;;;;;;14.27;6.32;;;11.20;49.70;;;;;;6198334;28;20041;-79
2021/04/18 07:37:50;;;;;;;12.70;5.53;;;11.30;49.40;;;;;;6208992;28;20034;-79
2021/04/18 07:40:56;;;;;;;10.82;5.80;;;11.40;49.00;;;;;;6205560;28;20469;-78
2021/04/18 07:43:57;;;;;;;14.07;6.90;;;11.60;48.80;;;;;;6215693;28;20116;-78
2021/04/18 07:46:59;;;;;;;12.52;5.93;;;11.70;48.60;;;;;;6209507;28;20464;-80
2021/04/18 07:50:01;;;;;;;16.83;6.15;;;11.80;48.30;;;;;;6207358;28;20033;-79
2021/04/18 07:53:02;;;;;;;13.98;6.45;;;11.90;47.90;;;;;;6186377;28;20042;-78
2021/04/18 07:56:14;;;;;;;11.73;6.30;;;12.10;47.70;;;;;;6216767;28;20033;-79
2021/04/18 07:59:16;;;;;;;10.20;6.03;;;12.30;47.50;;;;;;6227967;28;20037;-78
2021/04/18 08:02:20;;;;;;;18.63;6.82;;;12.40;47.30;;;;;;6202805;28;20040;-78
2021/04/18 08:05:25;;;;;;;12.18;6.50;;;12.60;47.00;;;;;;6216680;28;20353;-78
2021/04/18 08:08:42;;;;;;;14.32;6.38;;;12.70;46.50;;;;;;6210742;28;20040;-78
2021/04/18 08:12:07;;;;;;;15.00;6.95;;;12.80;46.30;;;;;;6202874;28;20029;-79
2021/04/18 08:15:14;;;;;;;13.38;6.80;;;13.00;46.00;;;;;;6224771;28;20104;-78
2021/04/18 08:18:15;;;;;;;10.23;6.00;;;13.10;45.50;;;;;;6223975;28;20038;-78
2021/04/18 08:21:26;;;;;;;12.10;6.60;;;13.30;45.30;;;;;;6236814;28;20034;-78
2021/04/18 08:24:33;;;;;;;13.57;6.97;;;13.40;45.00;;;;;;6223787;28;20041;-78
2021/04/18 08:27:59;;;;;;;12.30;5.97;;;13.60;44.40;;;;;;6220253;28;20353;-78
2021/04/18 08:31:09;;;;;;;13.77;6.88;;;13.70;44.10;;;;;;6219052;28;20054;-78
2021/04/18 08:34:20;;;;;;;12.63;6.22;;;13.80;43.70;;;;;;6226962;28;20041;-79
2021/04/18 08:37:21;;;;;;;13.77;5.95;;;14.00;43.50;;;;;;6225311;28;20029;-78
2021/04/18 08:40:31;;;;;;;11.75;6.03;;;14.20;43.30;;;;;;6214039;28;20042;-78
2021/04/18 08:43:32;;;;;;;10.65;6.45;;;14.40;43.10;;;;;;6204953;28;20045;-78
2021/04/18 08:46:32;;;;;;;11.65;6.68;;;14.50;42.80;;;;;;6230368;28;20372;-78
2021/04/18 08:49:47;;;;;;;10.50;6.40;;;14.70;42.40;;;;;;6202617;28;20471;-78
2021/04/18 08:52:48;;;;;;;11.63;6.55;;;14.90;42.10;;;;;;6225747;28;20046;-78
2021/04/18 08:56:02;;;;;;;16.08;7.43;;;15.00;40.90;;;;;;6220182;28;20049;-78
2021/04/18 08:59:12;;;;;;;12.23;6.63;;;15.00;40.20;;;;;;6212204;28;20038;-78
2021/04/18 09:02:14;;;;;;;15.57;7.65;;;15.00;40.10;;;;;;6216389;28;20030;-79
2021/04/18 09:05:19;;;;;;;12.77;6.68;;;15.00;39.70;;;;;;6236381;28;20029;-79
2021/04/18 09:08:20;;;;;;;10.70;6.35;;;15.00;40.00;;;;;;6217860;28;20113;-77
2021/04/18 09:11:21;;;;;;;15.35;8.35;;;15.20;40.00;;;;;;6189441;28;20027;-78
2021/04/18 09:14:31;;;;;;;13.48;6.60;;;15.30;39.80;;;;;;6191657;28;20034;-78
2021/04/18 09:17:33;;;;;;;12.63;6.80;;;15.50;39.50;;;;;;6224381;28;20484;-78
2021/04/18 09:20:34;;;;;;;11.68;6.05;;;15.60;39.30;;;;;;6211740;28;20053;-78
2021/04/18 09:23:55;;;;;;;11.77;6.72;;;15.60;38.20;;;;;;6195737;28;20065;-79
2021/04/18 09:27:16;;;;;;;11.75;6.38;;;15.70;38.70;;;;;;6222385;28;20037;-80
2021/04/18 09:30:23;;;;;;;15.60;7.28;;;15.90;38.70;;;;;;6197197;28;20042;-77
2021/04/18 09:33:30;;;;;;;11.73;6.85;;;16.00;38.20;;;;;;6239247;28;20107;-79
2021/04/18 09:36:32;;;;;;;15.68;6.85;;;16.10;37.80;;;;;;6220330;28;20026;-78
2021/04/18 09:39:35;;;;;;;12.18;6.45;;;16.30;37.50;;;;;;6226165;28;20049;-78
2021/04/18 09:42:39;;;;;;;11.45;6.75;;;16.40;37.00;;;;;;6200507;28;20095;-79
2021/04/18 09:45:40;;;;;;;14.20;6.90;;;16.40;37.20;;;;;;6219684;28;20026;-78
2021/04/18 09:48:41;;;;;;;15.13;7.47;;;16.50;37.00;;;;;;6214913;28;20525;-78
2021/04/18 09:52:21;;;;;;;11.38;6.35;;;16.60;36.90;;;;;;6218335;28;20483;-78
2021/04/18 09:55:26;;;;;;;10.85;6.75;;;16.60;37.00;;;;;;6123441;29;20042;-79
2021/04/18 09:58:40;;;;;;;11.75;6.68;;;16.70;36.70;;;;;;6118068;29;20043;-79
2021/04/18 10:01:41;;;;;;;16.00;7.53;;;16.70;36.50;;;;;;6132513;28;20048;-79
2021/04/18 10:04:43;;;;;;;16.05;7.63;;;16.70;36.20;;;;;;6133805;29;20470;-77
2021/04/18 10:07:44;;;;;;;11.25;7.05;;;16.60;36.30;;;;;;6123202;29;20332;-77
2021/04/18 10:10:47;;;;;;;15.98;6.40;;;16.70;36.40;;;;;;6114016;29;20051;-79
2021/04/18 10:13:55;;;;;;;12.07;6.93;;;16.60;36.20;;;;;;6124170;29;20075;-77
2021/04/18 10:16:56;;;;;;;12.48;6.63;;;16.50;36.20;;;;;;6133435;28;20346;-78
2021/04/18 10:20:26;;;;;;;10.93;6.35;;;16.40;36.20;;;;;;6138215;29;20055;-78
2021/04/18 10:23:32;;;;;;;14.65;6.90;;;16.30;36.50;;;;;;6135344;28;20063;-78
2021/04/18 10:26:33;;;;;;;12.18;6.68;;;16.30;36.50;;;;;;6118171;29;20050;-78
2021/04/18 10:29:35;;;;;;;12.43;6.45;;;16.30;36.50;;;;;;6120745;29;20058;-77
2021/04/18 10:32:36;;;;;;;13.48;6.32;;;16.40;36.20;;;;;;6223890;28;20095;-77
2021/04/18 10:35:37;;;;;;;16.33;6.75;;;16.50;36.20;;;;;;6193862;28;20134;-78
2021/04/18 10:38:38;;;;;;;8.45;5.28;;;16.60;35.90;;;;;;6211818;28;20034;-79
2021/04/18 10:41:38;;;;;;;10.45;5.82;;;16.80;35.30;;;;;;6190400;28;20034;-80
2021/04/18 10:44:40;;;;;;;10.02;5.65;;;16.90;34.70;;;;;;6211986;28;20045;-78
2021/04/18 10:47:41;;;;;;;16.45;5.60;;;17.00;34.60;;;;;;6216348;28;20034;-79
2021/04/18 10:50:42;;;;;;;14.93;6.28;;;17.10;34.10;;;;;;6196117;28;20045;-79
2021/04/18 10:53:43;;;;;;;12.57;6.20;;;17.20;33.80;;;;;;6206720;28;20436;-78
2021/04/18 10:56:49;;;;;;;11.20;6.10;;;17.40;33.60;;;;;;6212366;28;20053;-79
2021/04/18 10:59:50;;;;;;;9.68;5.30;;;17.60;33.30;;;;;;6208364;28;20356;-79
2021/04/18 11:02:51;;;;;;;9.05;5.32;;;17.60;33.00;;;;;;6212102;28;20041;-79
2021/04/18 11:05:52;;;;;;;9.20;5.13;;;17.60;33.10;;;;;;6232566;28;20038;-78
2021/04/18 11:08:53;;;;;;;9.00;5.30;;;17.60;33.10;;;;;;6223081;28;20403;-78
2021/04/18 11:11:54;;;;;;;10.68;6.00;;;17.50;33.00;;;;;;6195153;28;20472;-78
2021/04/18 11:14:55;;;;;;;11.25;5.53;;;17.40;33.00;;;;;;6221741;28;20029;-78
2021/04/18 11:17:55;;;;;;;10.15;5.78;;;17.40;33.10;;;;;;6228938;28;20038;-78
2021/04/18 11:20:56;;;;;;;10.38;5.45;;;17.40;33.20;;;;;;6213657;28;20047;-78
2021/04/18 11:23:57;;;;;;;11.43;6.80;;;17.40;33.50;;;;;;6212374;28;20437;-79
2021/04/18 11:26:58;;;;;;;12.15;5.82;;;17.40;33.60;;;;;;6219577;28;20171;-78
2021/04/18 11:30:02;;;;;;;10.50;5.05;;;17.40;33.60;;;;;;6203155;28;20053;-79
2021/04/18 11:33:05;;;;;;;10.13;5.43;;;17.40;33.30;;;;;;6204694;28;20060;-78
2021/04/18 11:36:07;;;;;;;9.60;6.15;;;17.30;33.10;;;;;;6206948;28;20030;-78
2021/04/18 11:39:08;;;;;;;16.58;5.53;;;17.30;33.00;;;;;;6206385;28;20026;-78
2021/04/18 11:42:09;;;;;;;8.73;5.13;;;17.50;32.90;;;;;;6202956;28;20048;-79
2021/04/18 11:45:11;;;;;;;8.10;4.95;;;18.00;32.60;;;;;;6204262;28;20151;-78
2021/04/18 11:48:12;;;;;;;8.98;5.57;;;18.50;31.30;;;;;;6172465;28;20419;-79
2021/04/18 11:51:13;;;;;;;12.02;4.88;;;19.10;30.50;;;;;;6187762;28;20034;-78
2021/04/18 11:54:14;;;;;;;6.93;4.88;;;19.70;29.80;;;;;;6203024;28;20128;-78
2021/04/18 11:57:14;;;;;;;11.27;5.22;;;20.10;29.00;;;;;;6198143;28;20042;-79
2021/04/18 12:00:16;;;;;;;8.30;5.10;;;20.20;28.40;;;;;;6158135;28;20070;-78
2021/04/18 12:03:17;;;;;;;8.75;4.63;;;20.00;28.20;;;;;;6188425;28;20372;-78
2021/04/18 12:06:19;;;;;;;7.00;4.50;;;19.70;28.60;;;;;;6199584;28;20034;-78
2021/04/18 12:09:20;;;;;;;8.70;4.80;;;19.50;28.70;;;;;;6215008;28;20121;-79
2021/04/18 12:12:20;;;;;;;9.00;4.88;;;19.30;28.90;;;;;;6210515;28;20040;-78
2021/04/18 12:15:21;;;;;;;8.25;4.75;;;19.20;29.10;;;;;;6217737;28;20041;-78
2021/04/18 12:18:22;;;;;;;9.45;4.30;;;19.20;29.10;;;;;;6199300;28;20044;-79
2021/04/18 12:21:23;;;;;;;10.30;4.60;;;19.30;29.20;;;;;;6208710;28;20085;-78
2021/04/18 12:24:24;;;;;;;7.40;4.63;;;19.30;28.90;;;;;;6202771;28;20148;-78
2021/04/18 12:27:25;;;;;;;9.00;5.03;;;19.50;28.80;;;;;;6214857;28;20037;-78
2021/04/18 12:30:27;;;;;;;7.10;4.70;;;19.90;28.20;;;;;;6173449;28;20042;-79
2021/04/18 12:33:28;;;;;;;11.07;4.35;;;20.50;27.50;;;;;;6203367;28;20146;-78
2021/04/18 12:36:29;;;;;;;7.55;4.57;;;20.40;27.40;;;;;;6198809;28;20034;-78
2021/04/18 12:43:31;;;;;;;7.30;4.40;;;19.80;28.10;;;;;;6205169;28;20109;-78
2021/04/18 12:46:31;;;;;;;7.07;4.13;;;19.50;28.40;;;;;;6193686;28;20045;-78
2021/04/18 12:49:32;;;;;;;7.15;4.07;;;19.30;28.50;;;;;;6217507;28;20042;-80
2021/04/18 12:52:34;;;;;;;5.78;3.38;;;19.10;28.70;;;;;;6211198;28;20412;-77
2021/04/18 12:55:34;;;;;;;5.85;3.42;;;18.90;28.60;;;;;;6207047;28;20031;-78
2021/04/18 12:58:36;;;;;;;4.82;3.60;;;18.60;28.80;;;;;;6215111;28;20460;-78
2021/04/18 13:01:37;;;;;;;7.53;4.20;;;18.30;29.20;;;;;;6213125;28;20496;-79
2021/04/18 13:04:38;;;;;;;6.20;3.78;;;18.10;29.50;;;;;;6202660;28;20029;-78
2021/04/18 13:07:39;;;;;;;6.45;3.83;;;18.00;29.70;;;;;;6206642;28;20038;-78
2021/04/18 13:10:40;;;;;;;7.40;3.72;;;17.80;30.00;;;;;;6178857;28;20031;-77
2021/04/18 13:13:41;;;;;;;7.82;3.90;;;17.70;30.10;;;;;;6210951;28;20042;-78
2021/04/18 13:16:42;;;;;;;6.93;3.53;;;17.70;30.20;;;;;;6209005;28;20042;-78
2021/04/18 13:19:43;;;;;;;6.57;3.67;;;17.60;30.20;;;;;;6196664;28;20048;-78
2021/04/18 13:22:44;;;;;;;5.18;3.45;;;17.60;30.30;;;;;;6202722;28;20033;-78
2021/04/18 13:25:45;;;;;;;7.05;3.38;;;17.60;30.30;;;;;;6213687;28;20044;-78
2021/04/18 13:28:46;;;;;;;5.57;3.50;;;17.60;30.40;;;;;;6210585;28;20368;-78
2021/04/18 13:31:47;;;;;;;5.57;2.85;;;17.60;30.60;;;;;;6213338;28;20045;-78
2021/04/18 13:34:48;;;;;;;5.05;3.08;;;17.60;31.00;;;;;;6213497;28;20034;-78
2021/04/18 13:37:49;;;;;;;5.68;2.70;;;17.60;31.60;;;;;;6217414;28;20464;-78
2021/04/18 13:40:50;;;;;;;8.57;2.75;;;17.50;32.00;;;;;;6226672;28;20046;-77
2021/04/18 13:43:51;;;;;;;8.07;3.50;;;17.50;32.30;;;;;;6197575;28;20053;-79
2021/04/18 13:46:52;;;;;;;12.85;3.15;;;17.50;32.50;;;;;;6215641;28;20460;-79
2021/04/18 13:49:53;;;;;;;6.03;3.17;;;17.80;32.70;;;;;;6215482;28;20034;-78
2021/04/18 13:52:54;;;;;;;4.00;2.88;;;19.30;30.90;;;;;;6196819;28;20044;-79
2021/04/18 13:55:55;;;;;;;9.00;2.95;;;21.50;28.60;;;;;;6206207;28;20046;-78
2021/04/18 13:58:57;;;;;;;9.13;3.38;;;23.40;26.20;;;;;;6208038;28;20072;-79
2021/04/18 14:01:57;;;;;;;3.78;2.60;;;24.20;24.60;;;;;;6197635;28;20060;-78
2021/04/18 14:04:59;;;;;;;8.77;3.45;;;23.70;24.70;;;;;;6196117;28;20041;-78
2021/04/18 14:08:00;;;;;;;5.07;3.08;;;22.80;25.50;;;;;;6214520;28;20044;-78
2021/04/18 14:11:01;;;;;;;5.55;3.08;;;21.90;26.40;;;;;;6219453;28;20143;-78
2021/04/18 14:14:02;;;;;;;6.72;3.08;;;21.70;26.90;;;;;;6209357;28;20038;-79
2021/04/18 14:17:03;;;;;;;5.13;2.67;;;21.80;26.70;;;;;;6197514;28;20480;-79
2021/04/18 14:20:06;;;;;;;4.70;2.85;;;21.50;26.70;;;;;;6226767;28;20416;-78
2021/04/18 14:23:09;;;;;;;4.63;2.58;;;21.00;27.20;;;;;;6214665;28;20037;-78
2021/04/18 14:26:10;;;;;;;7.97;3.20;;;20.80;27.50;;;;;;6237637;28;20037;-79
2021/04/18 14:29:11;;;;;;;10.88;2.97;;;20.40;27.80;;;;;;6220024;28;20476;-79
2021/04/18 14:32:12;;;;;;;12.30;3.60;;;19.90;28.30;;;;;;6242542;28;20087;-79
2021/04/18 14:35:14;;;;;;;4.25;2.55;;;19.40;29.40;;;;;;6213747;28;20372;-79
2021/04/18 14:38:15;;;;;;;4.43;2.63;;;19.00;29.60;;;;;;6204371;28;20544;-78
2021/04/18 14:41:16;;;;;;;4.82;2.70;;;18.70;29.90;;;;;;6224772;28;20041;-78
2021/04/18 14:44:19;;;;;;;6.25;3.10;;;18.60;30.20;;;;;;6222905;28;20471;-78
2021/04/18 14:47:22;;;;;;;6.25;3.55;;;18.60;31.20;;;;;;6212427;28;20465;-77
2021/04/18 14:50:23;;;;;;;6.22;2.85;;;18.40;31.30;;;;;;6212449;28;20033;-78
2021/04/18 14:53:24;;;;;;;6.13;2.70;;;18.30;32.00;;;;;;6227649;28;20388;-78
2021/04/18 14:56:25;;;;;;;8.00;3.38;;;18.10;32.40;;;;;;6230742;28;20038;-78
2021/04/18 14:59:26;;;;;;;7.60;3.47;;;18.00;32.50;;;;;;6220883;28;20472;-78
2021/04/18 15:02:27;;;;;;;7.20;3.30;;;17.90;32.60;;;;;;6213114;28;20053;-78
2021/04/18 15:05:28;;;;;;;6.13;3.47;;;18.00;32.70;;;;;;6236808;28;20420;-78
2021/04/18 15:08:29;;;;;;;5.22;2.97;;;18.00;32.60;;;;;;6220039;28;20457;-78
2021/04/18 15:11:30;;;;;;;5.15;3.00;;;18.00;32.50;;;;;;6215265;28;20121;-78
2021/04/18 15:14:30;;;;;;;5.90;3.17;;;18.00;32.40;;;;;;6214969;28;20056;-78
2021/04/18 15:17:31;;;;;;;7.78;3.95;;;17.90;32.30;;;;;;6218564;28;20364;-79
2021/04/18 15:20:32;;;;;;;7.32;3.22;;;17.70;32.40;;;;;;6220635;28;20037;-79
2021/04/18 15:23:33;;;;;;;6.25;3.22;;;17.70;32.60;;;;;;6226476;28;20034;-79
2021/04/18 15:26:40;;;;;;;4.80;3.10;;;17.60;32.90;;;;;;6214446;28;20058;-79
2021/04/18 15:29:41;;;;;;;8.55;3.22;;;17.60;33.20;;;;;;6214098;28;20042;-79
2021/04/18 15:32:43;;;;;;;6.95;3.50;;;17.50;33.10;;;;;;6220865;28;20053;-80
2021/04/18 15:35:44;;;;;;;7.63;3.40;;;17.50;33.10;;;;;;6221189;28;20055;-79
2021/04/18 15:38:48;;;;;;;5.55;3.20;;;17.50;33.10;;;;;;6221835;28;20092;-78
2021/04/18 15:41:49;;;;;;;5.88;3.33;;;17.50;33.10;;;;;;6207327;28;20042;-79
2021/04/18 15:44:52;;;;;;;7.57;3.53;;;17.50;33.20;;;;;;6221957;28;20042;-79
2021/04/18 15:47:53;;;;;;;6.50;3.63;;;17.50;33.30;;;;;;6233339;28;20372;-79
2021/04/18 15:50:54;;;;;;;6.68;3.30;;;17.50;33.50;;;;;;6224594;28;20030;-80
2021/04/18 15:53:55;;;;;;;7.13;3.42;;;17.40;33.60;;;;;;6232459;28;20062;-78
2021/04/18 15:56:56;;;;;;;11.15;2.92;;;17.40;33.70;;;;;;6219254;28;20040;-79
2021/04/18 15:59:57;;;;;;;5.38;3.10;;;17.40;33.70;;;;;;6221421;28;20038;-77
2021/04/18 16:02:58;;;;;;;5.47;2.78;;;17.40;33.90;;;;;;6222051;28;20036;-79
2021/04/18 16:06:00;;;;;;;7.40;3.58;;;17.30;34.10;;;;;;6209626;28;20045;-79